STL weather

Lambert St Louis International Airport
St Louis, Missouri, United States

Public forecast

Using degrees Fahrenheit for public forecast. Weather courtesy of forecast.io.

METAR (pilot weather report)

Retrieved 2017/06/28 03:51 UTC (1 hour ago):

KSTL 280351Z 15011KT 10SM CLR 24/11 A3003 RMK AO2 SLP160 T02390111

TAF (pilot weather forecast)

Forecast is more than 12 hours old.

Retrieved 2017/06/27 00:22 UTC (1 day ago):

TAF KSTL 272320Z 2800/2906 13008KT P6SM SKC FM281400 17013G18KT P6SM SCT250 FM281600 18015G24KT P6SM SCT045 FM290100 18012KT P6SM BKN250